Aviation Digital Data Service (ADDS)

Output produced by METARs form (0038 UTC 23 March 2019)
found at http://www.aviationweather.gov/metar/data/
 
METAR text: GMML 230000Z 03015KT 8000 NSC 18/11 Q1012 NOSIG
Conditions at: GMML (LAAYOUNE/HASSAN , MA) observed 0000 UTC 23 March 2019
Temperature: 18.0°C (64°F)
Dewpoint: 11.0°C (52°F) [RH = 64%]
Pressure (altimeter): 29.88 inches Hg (1012.0 mb)
Winds: from the NNE (30 degrees) at 17 MPH (15 knots; 7.7 m/s)
Visibility: 5 miles ( 8 km)
Ceiling: at least 12,000 feet AGL
Clouds: sky clear below 12,000 feet AGL
Weather: no significant weather observed at this time

METAR text: GMML 222300Z 05017KT 8000 NSC 19/12 Q1013 NOSIG
Conditions at: GMML (LAAYOUNE/HASSAN , MA) observed 2300 UTC 22 March 2019
Temperature: 19.0°C (66°F)
Dewpoint: 12.0°C (54°F) [RH = 64%]
Pressure (altimeter): 29.91 inches Hg (1013.0 mb)
Winds: from the NE (50 degrees) at 20 MPH (17 knots; 8.7 m/s)
Visibility: 5 miles ( 8 km)
Ceiling: at least 12,000 feet AGL
Clouds: sky clear below 12,000 feet AGL
Weather: no significant weather observed at this time

METAR text: GMML 222200Z 05017KT 6000 FEW017 OVC100 19/10 Q1013 NOSIG
Conditions at: GMML (LAAYOUNE/HASSAN , MA) observed 2200 UTC 22 March 2019
Temperature: 19.0°C (66°F)
Dewpoint: 10.0°C (50°F) [RH = 56%]
Pressure (altimeter): 29.91 inches Hg (1013.0 mb)
Winds: from the NE (50 degrees) at 20 MPH (17 knots; 8.7 m/s)
Visibility: 4 miles ( 6 km)
Ceiling: 10000 feet AGL
Clouds: few clouds at 1700 feet AGL
overcast cloud deck at 10000 feet AGL
Weather: no significant weather observed at this time

METAR text: GMML 222100Z 04020KT 6000 FEW017 OVC100 20/11 Q1012 NOSIG
Conditions at: GMML (LAAYOUNE/HASSAN , MA) observed 2100 UTC 22 March 2019
Temperature: 20.0°C (68°F)
Dewpoint: 11.0°C (52°F) [RH = 56%]
Pressure (altimeter): 29.88 inches Hg (1012.0 mb)
Winds: from the NE (40 degrees) at 23 MPH (20 knots; 10.3 m/s)
Visibility: 4 miles ( 6 km)
Ceiling: 10000 feet AGL
Clouds: few clouds at 1700 feet AGL
overcast cloud deck at 10000 feet AGL
Weather: no significant weather observed at this time

METAR text: GMML 222000Z 07018G28KT 060V120 5000 FEW017 OVC100 20/12 Q1012 TEMPO -TSRA
Conditions at: GMML (LAAYOUNE/HASSAN , MA) observed 2000 UTC 22 March 2019
Temperature: 20.0°C (68°F)
Dewpoint: 12.0°C (54°F) [RH = 60%]
Pressure (altimeter): 29.88 inches Hg (1012.0 mb)
Winds: from the ENE (70 degrees) at 21 MPH (18 knots; 9.3 m/s)
gusting to 32 MPH (28 knots; 14.4 m/s)
Visibility: 3 miles ( 5 km)
Ceiling: 10000 feet AGL
Clouds: few clouds at 1700 feet AGL
overcast cloud deck at 10000 feet AGL
Weather: no significant weather observed at this time

METAR text: GMML 221900Z 04023KT 6000 NSC 21/12 Q1010 NOSIG
Conditions at: GMML (LAAYOUNE/HASSAN , MA) observed 1900 UTC 22 March 2019
Temperature: 21.0°C (70°F)
Dewpoint: 12.0°C (54°F) [RH = 56%]
Pressure (altimeter): 29.82 inches Hg (1010.0 mb)
Winds: from the NE (40 degrees) at 26 MPH (23 knots; 11.8 m/s)
Visibility: 4 miles ( 6 km)
Ceiling: at least 12,000 feet AGL
Clouds: sky clear below 12,000 feet AGL
Weather: no significant weather observed at this time

METAR text: GMML 221800Z 03022KT 8000 NSC 23/12 Q1010 NOSIG
Conditions at: GMML (LAAYOUNE/HASSAN , MA) observed 1800 UTC 22 March 2019
Temperature: 23.0°C (73°F)
Dewpoint: 12.0°C (54°F) [RH = 50%]
Pressure (altimeter): 29.82 inches Hg (1010.0 mb)
Winds: from the NNE (30 degrees) at 25 MPH (22 knots; 11.3 m/s)
Visibility: 5 miles ( 8 km)
Ceiling: at least 12,000 feet AGL
Clouds: sky clear below 12,000 feet AGL
Weather: no significant weather observed at this time

METAR text: GMML 221700Z 02021KT CAVOK 25/13 Q1010 NOSIG
Conditions at: GMML (LAAYOUNE/HASSAN , MA) observed 1700 UTC 22 March 2019
Temperature: 25.0°C (77°F)
Dewpoint: 13.0°C (55°F) [RH = 47%]
Pressure (altimeter): 29.82 inches Hg (1010.0 mb)
Winds: from the NNE (20 degrees) at 24 MPH (21 knots; 10.8 m/s)
Visibility: 6 or more miles (10+ km)
Ceiling: ceiling and visibility are OK
Clouds: unknown
Weather: no significant weather observed at this time

METAR text: GMML 221600Z 03017KT CAVOK 28/10 Q1010 NOSIG
Conditions at: GMML (LAAYOUNE/HASSAN , MA) observed 1600 UTC 22 March 2019
Temperature: 28.0°C (82°F)
Dewpoint: 10.0°C (50°F) [RH = 32%]
Pressure (altimeter): 29.82 inches Hg (1010.0 mb)
Winds: from the NNE (30 degrees) at 20 MPH (17 knots; 8.7 m/s)
Visibility: 6 or more miles (10+ km)
Ceiling: ceiling and visibility are OK
Clouds: unknown
Weather: no significant weather observed at this time

METAR text: GMML 221500Z 04013KT CAVOK 29/10 Q1011 NOSIG
Conditions at: GMML (LAAYOUNE/HASSAN , MA) observed 1500 UTC 22 March 2019
Temperature: 29.0°C (84°F)
Dewpoint: 10.0°C (50°F) [RH = 31%]
Pressure (altimeter): 29.85 inches Hg (1011.0 mb)
Winds: from the NE (40 degrees) at 15 MPH (13 knots; 6.7 m/s)
Visibility: 6 or more miles (10+ km)
Ceiling: ceiling and visibility are OK
Clouds: unknown
Weather: no significant weather observed at this time

METAR text: GMML 221400Z 05015KT CAVOK 28/09 Q1012 NOSIG
Conditions at: GMML (LAAYOUNE/HASSAN , MA) observed 1400 UTC 22 March 2019
Temperature: 28.0°C (82°F)
Dewpoint: 9.0°C (48°F) [RH = 30%]
Pressure (altimeter): 29.88 inches Hg (1012.0 mb)
Winds: from the NE (50 degrees) at 17 MPH (15 knots; 7.7 m/s)
Visibility: 6 or more miles (10+ km)
Ceiling: ceiling and visibility are OK
Clouds: unknown
Weather: no significant weather observed at this time

METAR text: GMML 221300Z 05016KT CAVOK 27/09 Q1012 NOSIG
Conditions at: GMML (LAAYOUNE/HASSAN , MA) observed 1300 UTC 22 March 2019
Temperature: 27.0°C (81°F)
Dewpoint: 9.0°C (48°F) [RH = 32%]
Pressure (altimeter): 29.88 inches Hg (1012.0 mb)
Winds: from the NE (50 degrees) at 18 MPH (16 knots; 8.2 m/s)
Visibility: 6 or more miles (10+ km)
Ceiling: ceiling and visibility are OK
Clouds: unknown
Weather: no significant weather observed at this time

METAR text: GMML 221200Z 04016KT CAVOK 25/11 Q1014 NOSIG
Conditions at: GMML (LAAYOUNE/HASSAN , MA) observed 1200 UTC 22 March 2019
Temperature: 25.0°C (77°F)
Dewpoint: 11.0°C (52°F) [RH = 41%]
Pressure (altimeter): 29.94 inches Hg (1014.0 mb)
Winds: from the NE (40 degrees) at 18 MPH (16 knots; 8.2 m/s)
Visibility: 6 or more miles (10+ km)
Ceiling: ceiling and visibility are OK
Clouds: unknown
Weather: no significant weather observed at this time

METAR text: GMML 221100Z 06023KT CAVOK 22/11 Q1015 NOSIG
Conditions at: GMML (LAAYOUNE/HASSAN , MA) observed 1100 UTC 22 March 2019
Temperature: 22.0°C (72°F)
Dewpoint: 11.0°C (52°F) [RH = 50%]
Pressure (altimeter): 29.97 inches Hg (1015.0 mb)
Winds: from the ENE (60 degrees) at 26 MPH (23 knots; 11.8 m/s)
Visibility: 6 or more miles (10+ km)
Ceiling: ceiling and visibility are OK
Clouds: unknown
Weather: no significant weather observed at this time

METAR text: GMML 221000Z 05020KT CAVOK 19/12 Q1014 NOSIG
Conditions at: GMML (LAAYOUNE/HASSAN , MA) observed 1000 UTC 22 March 2019
Temperature: 19.0°C (66°F)
Dewpoint: 12.0°C (54°F) [RH = 64%]
Pressure (altimeter): 29.94 inches Hg (1014.0 mb)
Winds: from the NE (50 degrees) at 23 MPH (20 knots; 10.3 m/s)
Visibility: 6 or more miles (10+ km)
Ceiling: ceiling and visibility are OK
Clouds: unknown
Weather: no significant weather observed at this time

METAR text: GMML 220900Z 05020KT CAVOK 15/14 Q1013 NOSIG
Conditions at: GMML (LAAYOUNE/HASSAN , MA) observed 0900 UTC 22 March 2019
Temperature: 15.0°C (59°F)
Dewpoint: 14.0°C (57°F) [RH = 94%]
Pressure (altimeter): 29.91 inches Hg (1013.0 mb)
Winds: from the NE (50 degrees) at 23 MPH (20 knots; 10.3 m/s)
Visibility: 6 or more miles (10+ km)
Ceiling: ceiling and visibility are OK
Clouds: unknown
Weather: no significant weather observed at this time

METAR text: GMML 220800Z 04017KT 8000 NSC 15/14 Q1013 NOSIG
Conditions at: GMML (LAAYOUNE/HASSAN , MA) observed 0800 UTC 22 March 2019
Temperature: 15.0°C (59°F)
Dewpoint: 14.0°C (57°F) [RH = 94%]
Pressure (altimeter): 29.91 inches Hg (1013.0 mb)
Winds: from the NE (40 degrees) at 20 MPH (17 knots; 8.7 m/s)
Visibility: 5 miles ( 8 km)
Ceiling: at least 12,000 feet AGL
Clouds: sky clear below 12,000 feet AGL
Weather: no significant weather observed at this time

METAR text: GMML 220700Z 05019KT 6000 NSC 15/14 Q1013 NOSIG
Conditions at: GMML (LAAYOUNE/HASSAN , MA) observed 0700 UTC 22 March 2019
Temperature: 15.0°C (59°F)
Dewpoint: 14.0°C (57°F) [RH = 94%]
Pressure (altimeter): 29.91 inches Hg (1013.0 mb)
Winds: from the NE (50 degrees) at 22 MPH (19 knots; 9.8 m/s)
Visibility: 4 miles ( 6 km)
Ceiling: at least 12,000 feet AGL
Clouds: sky clear below 12,000 feet AGL
Weather: no significant weather observed at this time

METAR text: GMML 220600Z 05015KT 5000 SCT010 BKN200 15/14 Q1013 NOSIG
Conditions at: GMML (LAAYOUNE/HASSAN , MA) observed 0600 UTC 22 March 2019
Temperature: 15.0°C (59°F)
Dewpoint: 14.0°C (57°F) [RH = 94%]
Pressure (altimeter): 29.91 inches Hg (1013.0 mb)
Winds: from the NE (50 degrees) at 17 MPH (15 knots; 7.7 m/s)
Visibility: 3 miles ( 5 km)
Ceiling: 20000 feet AGL
Clouds: scattered clouds at 1000 feet AGL
broken clouds at 20000 feet AGL
Weather: no significant weather observed at this time

METAR text: GMML 220500Z 04016KT 6000 FEW010 BKN200 15/14 Q1013 NOSIG
Conditions at: GMML (LAAYOUNE/HASSAN , MA) observed 0500 UTC 22 March 2019
Temperature: 15.0°C (59°F)
Dewpoint: 14.0°C (57°F) [RH = 94%]
Pressure (altimeter): 29.91 inches Hg (1013.0 mb)
Winds: from the NE (40 degrees) at 18 MPH (16 knots; 8.2 m/s)
Visibility: 4 miles ( 6 km)
Ceiling: 20000 feet AGL
Clouds: few clouds at 1000 feet AGL
broken clouds at 20000 feet AGL
Weather: no significant weather observed at this time

METAR text: GMML 220400Z 04013KT 8000 SCT010 BKN200 15/14 Q1013 NOSIG
Conditions at: GMML (LAAYOUNE/HASSAN , MA) observed 0400 UTC 22 March 2019
Temperature: 15.0°C (59°F)
Dewpoint: 14.0°C (57°F) [RH = 94%]
Pressure (altimeter): 29.91 inches Hg (1013.0 mb)
Winds: from the NE (40 degrees) at 15 MPH (13 knots; 6.7 m/s)
Visibility: 5 miles ( 8 km)
Ceiling: 20000 feet AGL
Clouds: scattered clouds at 1000 feet AGL
broken clouds at 20000 feet AGL
Weather: no significant weather observed at this time

METAR text: GMML 220300Z 05012KT 8000 SCT010 BKN200 15/13 Q1014 NOSIG
Conditions at: GMML (LAAYOUNE/HASSAN , MA) observed 0300 UTC 22 March 2019
Temperature: 15.0°C (59°F)
Dewpoint: 13.0°C (55°F) [RH = 88%]
Pressure (altimeter): 29.94 inches Hg (1014.0 mb)
Winds: from the NE (50 degrees) at 14 MPH (12 knots; 6.2 m/s)
Visibility: 5 miles ( 8 km)
Ceiling: 20000 feet AGL
Clouds: scattered clouds at 1000 feet AGL
broken clouds at 20000 feet AGL
Weather: no significant weather observed at this time

METAR text: GMML 220200Z 05015KT 8000 FEW010 BKN200 16/13 Q1014 NOSIG
Conditions at: GMML (LAAYOUNE/HASSAN , MA) observed 0200 UTC 22 March 2019
Temperature: 16.0°C (61°F)
Dewpoint: 13.0°C (55°F) [RH = 82%]
Pressure (altimeter): 29.94 inches Hg (1014.0 mb)
Winds: from the NE (50 degrees) at 17 MPH (15 knots; 7.7 m/s)
Visibility: 5 miles ( 8 km)
Ceiling: 20000 feet AGL
Clouds: few clouds at 1000 feet AGL
broken clouds at 20000 feet AGL
Weather: no significant weather observed at this time

METAR text: GMML 220100Z 04013KT 8000 SCT010 BKN200 16/14 Q1015 NOSIG
Conditions at: GMML (LAAYOUNE/HASSAN , MA) observed 0100 UTC 22 March 2019
Temperature: 16.0°C (61°F)
Dewpoint: 14.0°C (57°F) [RH = 88%]
Pressure (altimeter): 29.97 inches Hg (1015.0 mb)
Winds: from the NE (40 degrees) at 15 MPH (13 knots; 6.7 m/s)
Visibility: 5 miles ( 8 km)
Ceiling: 20000 feet AGL
Clouds: scattered clouds at 1000 feet AGL
broken clouds at 20000 feet AGL
Weather: no significant weather observed at this time

METAR text: GMML 220000Z 05016KT 8000 SCT010 BKN200 16/13 Q1015 NOSIG
Conditions at: GMML (LAAYOUNE/HASSAN , MA) observed 0000 UTC 22 March 2019
Temperature: 16.0°C (61°F)
Dewpoint: 13.0°C (55°F) [RH = 82%]
Pressure (altimeter): 29.97 inches Hg (1015.0 mb)
Winds: from the NE (50 degrees) at 18 MPH (16 knots; 8.2 m/s)
Visibility: 5 miles ( 8 km)
Ceiling: 20000 feet AGL
Clouds: scattered clouds at 1000 feet AGL
broken clouds at 20000 feet AGL
Weather: no significant weather observed at this time

METAR text: GMML 212300Z 04018KT 8000 NSC 17/13 Q1015 NOSIG
Conditions at: GMML (LAAYOUNE/HASSAN , MA) observed 2300 UTC 21 March 2019
Temperature: 17.0°C (63°F)
Dewpoint: 13.0°C (55°F) [RH = 77%]
Pressure (altimeter): 29.97 inches Hg (1015.0 mb)
Winds: from the NE (40 degrees) at 21 MPH (18 knots; 9.3 m/s)
Visibility: 5 miles ( 8 km)
Ceiling: at least 12,000 feet AGL
Clouds: sky clear below 12,000 feet AGL
Weather: no significant weather observed at this time

METAR text: GMML 212200Z 04020KT 8000 NSC 17/13 Q1015 NOSIG
Conditions at: GMML (LAAYOUNE/HASSAN , MA) observed 2200 UTC 21 March 2019
Temperature: 17.0°C (63°F)
Dewpoint: 13.0°C (55°F) [RH = 77%]
Pressure (altimeter): 29.97 inches Hg (1015.0 mb)
Winds: from the NE (40 degrees) at 23 MPH (20 knots; 10.3 m/s)
Visibility: 5 miles ( 8 km)
Ceiling: at least 12,000 feet AGL
Clouds: sky clear below 12,000 feet AGL
Weather: no significant weather observed at this time

METAR text: GMML 212100Z 04022KT 8000 NSC 17/13 Q1014 NOSIG
Conditions at: GMML (LAAYOUNE/HASSAN , MA) observed 2100 UTC 21 March 2019
Temperature: 17.0°C (63°F)
Dewpoint: 13.0°C (55°F) [RH = 77%]
Pressure (altimeter): 29.94 inches Hg (1014.0 mb)
Winds: from the NE (40 degrees) at 25 MPH (22 knots; 11.3 m/s)
Visibility: 5 miles ( 8 km)
Ceiling: at least 12,000 feet AGL
Clouds: sky clear below 12,000 feet AGL
Weather: no significant weather observed at this time

METAR text: GMML 212000Z 04020KT 8000 NSC 18/12 Q1013 NOSIG
Conditions at: GMML (LAAYOUNE/HASSAN , MA) observed 2000 UTC 21 March 2019
Temperature: 18.0°C (64°F)
Dewpoint: 12.0°C (54°F) [RH = 68%]
Pressure (altimeter): 29.91 inches Hg (1013.0 mb)
Winds: from the NE (40 degrees) at 23 MPH (20 knots; 10.3 m/s)
Visibility: 5 miles ( 8 km)
Ceiling: at least 12,000 feet AGL
Clouds: sky clear below 12,000 feet AGL
Weather: no significant weather observed at this time

METAR text: GMML 211900Z 03021KT 8000 NSC 20/10 Q1013 NOSIG
Conditions at: GMML (LAAYOUNE/HASSAN , MA) observed 1900 UTC 21 March 2019
Temperature: 20.0°C (68°F)
Dewpoint: 10.0°C (50°F) [RH = 53%]
Pressure (altimeter): 29.91 inches Hg (1013.0 mb)
Winds: from the NNE (30 degrees) at 24 MPH (21 knots; 10.8 m/s)
Visibility: 5 miles ( 8 km)
Ceiling: at least 12,000 feet AGL
Clouds: sky clear below 12,000 feet AGL
Weather: no significant weather observed at this time

METAR text: GMML 211800Z 03020KT 8000 NSC 22/10 Q1012 NOSIG
Conditions at: GMML (LAAYOUNE/HASSAN , MA) observed 1800 UTC 21 March 2019
Temperature: 22.0°C (72°F)
Dewpoint: 10.0°C (50°F) [RH = 46%]
Pressure (altimeter): 29.88 inches Hg (1012.0 mb)
Winds: from the NNE (30 degrees) at 23 MPH (20 knots; 10.3 m/s)
Visibility: 5 miles ( 8 km)
Ceiling: at least 12,000 feet AGL
Clouds: sky clear below 12,000 feet AGL
Weather: no significant weather observed at this time

METAR text: GMML 211700Z 03017KT CAVOK 25/11 Q1012 NOSIG
Conditions at: GMML (LAAYOUNE/HASSAN , MA) observed 1700 UTC 21 March 2019
Temperature: 25.0°C (77°F)
Dewpoint: 11.0°C (52°F) [RH = 41%]
Pressure (altimeter): 29.88 inches Hg (1012.0 mb)
Winds: from the NNE (30 degrees) at 20 MPH (17 knots; 8.7 m/s)
Visibility: 6 or more miles (10+ km)
Ceiling: ceiling and visibility are OK
Clouds: unknown
Weather: no significant weather observed at this time

METAR text: GMML 211600Z 03014KT CAVOK 26/09 Q1012 NOSIG
Conditions at: GMML (LAAYOUNE/HASSAN , MA) observed 1600 UTC 21 March 2019
Temperature: 26.0°C (79°F)
Dewpoint: 9.0°C (48°F) [RH = 34%]
Pressure (altimeter): 29.88 inches Hg (1012.0 mb)
Winds: from the NNE (30 degrees) at 16 MPH (14 knots; 7.2 m/s)
Visibility: 6 or more miles (10+ km)
Ceiling: ceiling and visibility are OK
Clouds: unknown
Weather: no significant weather observed at this time

METAR text: GMML 211500Z 04014KT CAVOK 27/09 Q1013 NOSIG
Conditions at: GMML (LAAYOUNE/HASSAN , MA) observed 1500 UTC 21 March 2019
Temperature: 27.0°C (81°F)
Dewpoint: 9.0°C (48°F) [RH = 32%]
Pressure (altimeter): 29.91 inches Hg (1013.0 mb)
Winds: from the NE (40 degrees) at 16 MPH (14 knots; 7.2 m/s)
Visibility: 6 or more miles (10+ km)
Ceiling: ceiling and visibility are OK
Clouds: unknown
Weather: no significant weather observed at this time

METAR text: GMML 211400Z 05014KT CAVOK 27/09 Q1013 NOSIG
Conditions at: GMML (LAAYOUNE/HASSAN , MA) observed 1400 UTC 21 March 2019
Temperature: 27.0°C (81°F)
Dewpoint: 9.0°C (48°F) [RH = 32%]
Pressure (altimeter): 29.91 inches Hg (1013.0 mb)
Winds: from the NE (50 degrees) at 16 MPH (14 knots; 7.2 m/s)
Visibility: 6 or more miles (10+ km)
Ceiling: ceiling and visibility are OK
Clouds: unknown
Weather: no significant weather observed at this time

METAR text: GMML 211300Z 04012KT CAVOK 25/10 Q1015 NOSIG
Conditions at: GMML (LAAYOUNE/HASSAN , MA) observed 1300 UTC 21 March 2019
Temperature: 25.0°C (77°F)
Dewpoint: 10.0°C (50°F) [RH = 39%]
Pressure (altimeter): 29.97 inches Hg (1015.0 mb)
Winds: from the NE (40 degrees) at 14 MPH (12 knots; 6.2 m/s)
Visibility: 6 or more miles (10+ km)
Ceiling: ceiling and visibility are OK
Clouds: unknown
Weather: no significant weather observed at this time

Forecast for: GMML (LAAYOUNE/HASSAN , MA)
Text: TAF GMML 222300Z 2300/2406 02017KT 9999 FEW020
Forecast period: 0000 UTC 23 March 2019 to 0600 UTC 24 March 2019
Forecast type: FROM: standard forecast or significant change
Winds: from the NNE (20 degrees) at 20 MPH (17 knots; 8.7 m/s)
Visibility: 6 or more miles 10+ km)
Ceiling: at least 12,000 feet AGL
Clouds: few clouds at 2000 feet AGL
Weather: no significant weather forecast for this period